createdAt,value
2022-11-04T00:45:37.261Z,40.70
2022-11-04T01:05:47.615Z,40.80
2022-11-04T01:50:17.992Z,40.90
2022-11-04T01:53:54.020Z,41.00
2022-11-04T01:57:20.989Z,41.00
2022-11-04T02:00:42.077Z,40.90
2022-11-04T02:04:30.168Z,41.00
2022-11-04T02:32:54.924Z,41.00
2022-11-04T02:36:36.954Z,41.10
2022-11-04T02:40:24.987Z,41.10
2022-11-04T02:44:07.020Z,41.10
2022-11-04T02:47:55.055Z,41.10
2022-11-04T02:51:31.084Z,41.10
2022-11-04T02:55:07.113Z,41.20
2022-11-04T02:58:37.144Z,41.20
2022-11-04T03:01:48.685Z,41.20
2022-11-04T03:05:01.208Z,41.10
2022-11-04T03:08:07.003Z,41.20
2022-11-04T03:11:24.705Z,41.10
2022-11-04T03:14:30.739Z,41.20
2022-11-04T03:17:37.331Z,41.30
2022-11-04T03:20:48.797Z,41.20
2022-11-04T03:24:07.401Z,41.30
2022-11-04T03:27:18.861Z,41.30
2022-11-04T03:30:25.462Z,41.20
2022-11-04T03:33:36.922Z,41.30
2022-11-04T03:36:48.955Z,41.30
2022-11-04T03:39:54.983Z,41.30
2022-11-04T03:43:07.693Z,41.30
2022-11-04T03:46:13.058Z,41.30
2022-11-04T03:49:19.658Z,41.30
2022-11-04T03:52:31.105Z,41.30
2022-11-04T03:55:37.722Z,41.40
2022-11-04T03:58:55.173Z,41.30
2022-11-04T04:02:07.240Z,41.30
2022-11-04T04:05:19.231Z,41.40
2022-11-04T04:08:43.262Z,41.60
2022-11-04T04:11:55.297Z,41.20
2022-11-04T04:15:01.895Z,40.90
2022-11-04T04:18:13.356Z,40.60
2022-11-04T04:21:19.955Z,40.40
2022-11-04T04:24:41.677Z,40.20
2022-11-04T04:27:56.011Z,40.00
2022-11-04T04:31:01.478Z,39.70
2022-11-04T04:34:08.068Z,39.60
2022-11-04T04:37:19.530Z,39.50
2022-11-04T04:40:38.123Z,39.40
2022-11-04T04:43:55.583Z,39.20
2022-11-04T04:47:23.507Z,39.10
2022-11-04T04:50:50.212Z,39.00
2022-11-04T04:54:23.569Z,39.10
2022-11-04T04:57:59.597Z,39.00
2022-11-04T05:01:29.796Z,38.90
2022-11-04T05:04:59.792Z,38.90
2022-11-04T05:11:59.732Z,38.80
2022-11-04T05:15:41.765Z,38.70
2022-11-04T05:22:37.879Z,38.70
2022-11-04T05:25:06.863Z,38.60
2022-11-04T05:27:35.450Z,38.50
2022-11-04T05:31:17.898Z,38.50
2022-11-04T08:37:19.162Z,36.70
2022-11-04T08:40:41.105Z,36.40
2022-11-04T10:42:11.708Z,36.40
2022-11-04T10:44:52.081Z,36.40
2022-11-04T10:47:43.210Z,36.50
2022-11-04T10:50:47.362Z,36.40
2022-11-04T13:18:00.058Z,35.80
2022-11-04T13:26:06.124Z,35.90
2022-11-04T13:29:26.997Z,36.00
2022-11-04T13:32:40.685Z,36.00
2022-11-04T13:36:03.864Z,35.90
2022-11-04T13:39:01.125Z,35.90
2022-11-04T13:42:34.763Z,36.00
2022-11-04T13:46:03.117Z,36.50
2022-11-04T13:49:42.321Z,35.90
2022-11-04T13:52:46.365Z,36.50
2022-11-04T13:56:32.937Z,36.00
2022-11-04T13:59:48.445Z,36.00
2022-11-04T14:03:07.498Z,36.00
2022-11-04T14:06:36.458Z,36.00
2022-11-04T14:10:10.796Z,36.00
2022-11-04T14:13:06.669Z,36.10
2022-11-04T14:16:28.918Z,36.10
2022-11-04T14:20:09.424Z,36.10
2022-11-04T14:23:33.452Z,36.10
2022-11-04T14:26:57.483Z,36.20
2022-11-04T14:30:33.517Z,36.20
2022-11-04T14:33:48.680Z,36.20
2022-11-04T14:37:06.710Z,36.10
2022-11-04T14:40:39.003Z,36.10
2022-11-04T14:44:09.657Z,36.10
2022-11-04T17:24:55.753Z,37.10
2022-11-04T17:28:13.780Z,37.20
2022-11-04T17:40:01.917Z,37.10
2022-11-04T17:43:31.938Z,37.10
2022-11-04T17:47:07.970Z,37.20
2022-11-04T17:50:37.998Z,37.20
2022-11-04T17:54:08.039Z,37.20
2022-11-04T17:57:44.077Z,37.30
2022-11-04T18:01:08.215Z,37.40
2022-11-04T18:04:38.173Z,37.30
2022-11-04T18:08:08.171Z,37.50
2022-11-04T18:11:46.318Z,37.50
2022-11-04T18:15:20.235Z,37.50
2022-11-04T18:18:46.524Z,37.40
2022-11-04T18:22:14.297Z,37.40
2022-11-04T18:25:50.588Z,37.50
2022-11-04T18:29:14.356Z,37.50
2022-11-04T18:32:52.266Z,37.40
2022-11-04T18:36:20.416Z,37.40
2022-11-04T18:39:52.347Z,37.40
2022-11-04T18:43:20.477Z,38.10
2022-11-04T18:46:52.398Z,37.50
2022-11-04T18:50:26.544Z,37.40
2022-11-04T18:53:52.467Z,37.40
2022-11-04T18:57:20.604Z,37.40
2022-11-04T19:00:52.615Z,37.50
2022-11-04T19:04:20.677Z,37.50
2022-11-04T19:07:56.710Z,37.70
2022-11-04T19:11:20.738Z,38.00
2022-11-04T19:14:52.653Z,37.90
2022-11-04T19:18:20.804Z,38.10
2022-11-04T19:21:48.664Z,38.10
2022-11-04T19:25:20.857Z,38.20
2022-11-04T19:28:49.064Z,38.30
2022-11-04T19:32:14.922Z,38.30
2022-11-04T19:35:41.215Z,38.30
2022-11-04T19:38:52.850Z,38.30
2022-11-04T19:42:33.023Z,38.50
2022-11-04T19:46:02.837Z,38.50
2022-11-04T19:49:11.015Z,38.50
2022-11-04T19:52:16.962Z,38.50
2022-11-04T19:55:23.068Z,38.50
2022-11-04T19:58:34.784Z,38.60
2022-11-04T20:01:41.204Z,38.60
2022-11-04T20:04:46.838Z,38.70
2022-11-04T20:07:52.870Z,38.70
2022-11-04T20:11:04.901Z,38.90
2022-11-04T20:14:16.929Z,38.90
2022-11-04T20:17:28.953Z,38.90
2022-11-04T20:20:41.294Z,38.90
2022-11-04T20:24:11.321Z,39.00
2022-11-04T20:27:39.453Z,39.00
2022-11-04T20:31:15.486Z,39.00
2022-11-04T20:34:45.512Z,39.10
2022-11-04T20:38:15.547Z,39.10
2022-11-04T20:41:51.269Z,39.20
2022-11-04T20:45:15.608Z,39.20
2022-11-04T20:48:51.587Z,39.30
2022-11-04T20:52:15.672Z,39.20
2022-11-04T20:55:33.698Z,39.30
2022-11-04T20:59:00.056Z,39.20
2022-11-04T21:02:27.901Z,39.30
2022-11-04T21:06:09.803Z,39.20
2022-11-04T21:09:39.836Z,39.90
2022-11-04T21:13:03.868Z,39.20
2022-11-04T21:16:39.920Z,39.30
2022-11-04T21:20:03.935Z,39.40
2022-11-04T21:44:00.093Z,39.70
2022-11-04T22:00:10.454Z,39.80
2022-11-04T22:03:40.480Z,39.70
2022-11-04T22:07:04.511Z,39.70
2022-11-04T22:10:34.541Z,39.70
2022-11-04T22:13:58.571Z,39.70
2022-11-04T22:17:40.602Z,39.70
2022-11-04T22:21:04.627Z,39.70
2022-11-04T22:24:34.659Z,39.70
2022-11-04T22:28:04.682Z,39.70
2022-11-04T22:31:28.727Z,39.90
2022-11-04T22:35:04.740Z,39.80
2022-11-04T22:38:34.771Z,39.80
2022-11-04T22:41:58.798Z,39.80
2022-11-04T22:45:28.826Z,39.90
2022-11-04T22:48:54.744Z,39.90
2022-11-04T22:52:34.882Z,40.00
2022-11-04T22:56:04.916Z,40.00
2022-11-04T22:59:40.948Z,40.00
2022-11-04T23:03:05.147Z,40.00
2022-11-04T23:06:34.997Z,40.10
2022-11-04T23:10:17.030Z,40.10
2022-11-04T23:13:47.065Z,40.10
2022-11-04T23:17:11.097Z,40.10
2022-11-04T23:20:41.122Z,40.10
2022-11-04T23:24:05.153Z,40.20
2022-11-04T23:27:49.508Z,40.20
2022-11-04T23:31:05.207Z,40.20
2022-11-04T23:34:35.235Z,40.20
2022-11-04T23:38:11.263Z,40.20
2022-11-04T23:41:41.293Z,40.20
2022-11-04T23:45:11.324Z,40.20
